sensor_id;sensor_type;location;lat;lon;timestamp;pressure;altitude;pressure_sealevel;temperature;humidity
5455;BME280;2750;49.050;9.250;2023-02-18T00:02:18;99624.22;;;13.80;88.43
5455;BME280;2750;49.050;9.250;2023-02-18T00:07:21;99626.81;;;13.61;89.13
5455;BME280;2750;49.050;9.250;2023-02-18T00:12:22;99626.75;;;13.81;87.83
5455;BME280;2750;49.050;9.250;2023-02-18T00:17:24;99619.72;;;13.83;88.57
5455;BME280;2750;49.050;9.250;2023-02-18T00:22:27;99628.66;;;13.78;88.51
5455;BME280;2750;49.050;9.250;2023-02-18T00:27:29;99639.25;;;13.94;88.57
5455;BME280;2750;49.050;9.250;2023-02-18T00:32:31;99640.22;;;14.10;88.03
5455;BME280;2750;49.050;9.250;2023-02-18T00:37:34;99629.31;;;14.02;87.82
5455;BME280;2750;49.050;9.250;2023-02-18T00:42:35;99630.75;;;14.07;87.99
5455;BME280;2750;49.050;9.250;2023-02-18T00:47:37;99624.22;;;13.99;87.41
5455;BME280;2750;49.050;9.250;2023-02-18T00:52:40;99626.47;;;14.06;87.43
5455;BME280;2750;49.050;9.250;2023-02-18T00:57:41;99636.91;;;14.06;86.67
5455;BME280;2750;49.050;9.250;2023-02-18T01:02:43;99632.09;;;14.16;86.90
5455;BME280;2750;49.050;9.250;2023-02-18T01:07:46;99619.97;;;13.96;87.12
5455;BME280;2750;49.050;9.250;2023-02-18T01:12:48;99623.06;;;14.23;86.05
5455;BME280;2750;49.050;9.250;2023-02-18T01:17:49;99611.06;;;14.19;86.40
5455;BME280;2750;49.050;9.250;2023-02-18T01:22:53;99613.78;;;13.99;86.40
5455;BME280;2750;49.050;9.250;2023-02-18T01:27:55;99627.91;;;13.95;87.35
5455;BME280;2750;49.050;9.250;2023-02-18T01:32:57;99623.38;;;13.98;87.09
5455;BME280;2750;49.050;9.250;2023-02-18T01:38:00;99621.69;;;13.97;87.60
5455;BME280;2750;49.050;9.250;2023-02-18T01:43:02;99611.22;;;14.16;87.25
5455;BME280;2750;49.050;9.250;2023-02-18T01:48:07;99597.16;;;13.82;88.25
5455;BME280;2750;49.050;9.250;2023-02-18T01:53:14;99617.03;;;13.85;88.43
5455;BME280;2750;49.050;9.250;2023-02-18T01:58:17;99609.84;;;13.90;88.11
5455;BME280;2750;49.050;9.250;2023-02-18T02:03:18;99612.31;;;13.93;87.93
5455;BME280;2750;49.050;9.250;2023-02-18T02:08:21;99604.91;;;14.03;87.23
5455;BME280;2750;49.050;9.250;2023-02-18T02:13:31;99587.41;;;14.05;86.91
5455;BME280;2750;49.050;9.250;2023-02-18T02:18:49;99573.34;;;13.71;87.35
5455;BME280;2750;49.050;9.250;2023-02-18T02:24:28;99580.78;;;13.98;87.17
5455;BME280;2750;49.050;9.250;2023-02-18T02:35:15;99563.16;;;13.84;87.33
5455;BME280;2750;49.050;9.250;2023-02-18T02:40:22;99585.03;;;13.81;87.79
5455;BME280;2750;49.050;9.250;2023-02-18T02:45:28;99581.91;;;13.92;87.61
5455;BME280;2750;49.050;9.250;2023-02-18T02:50:39;99574.41;;;14.03;87.57
5455;BME280;2750;49.050;9.250;2023-02-18T02:55:44;99547.44;;;13.85;87.48
5455;BME280;2750;49.050;9.250;2023-02-18T03:00:58;99568.22;;;14.06;87.30
5455;BME280;2750;49.050;9.250;2023-02-18T03:06:26;99557.00;;;14.04;86.83
5455;BME280;2750;49.050;9.250;2023-02-18T03:11:37;99553.34;;;13.89;87.14
5455;BME280;2750;49.050;9.250;2023-02-18T03:16:46;99553.09;;;14.12;86.24
5455;BME280;2750;49.050;9.250;2023-02-18T03:21:55;99555.50;;;14.17;86.17
5455;BME280;2750;49.050;9.250;2023-02-18T03:27:07;99542.75;;;14.28;85.90
5455;BME280;2750;49.050;9.250;2023-02-18T03:32:13;99541.03;;;13.74;86.93
5455;BME280;2750;49.050;9.250;2023-02-18T03:37:18;99555.50;;;13.62;88.51
5455;BME280;2750;49.050;9.250;2023-02-18T03:42:24;99555.53;;;13.98;86.84
5455;BME280;2750;49.050;9.250;2023-02-18T03:47:26;99545.94;;;13.80;87.68
5455;BME280;2750;49.050;9.250;2023-02-18T03:52:29;99541.88;;;13.74;87.61
5455;BME280;2750;49.050;9.250;2023-02-18T03:57:31;99542.00;;;13.90;87.93
5455;BME280;2750;49.050;9.250;2023-02-18T04:02:32;99540.03;;;13.76;88.58
5455;BME280;2750;49.050;9.250;2023-02-18T04:07:35;99527.31;;;13.52;90.06
5455;BME280;2750;49.050;9.250;2023-02-18T04:12:37;99511.44;;;13.19;92.65
5455;BME280;2750;49.050;9.250;2023-02-18T04:17:38;99521.75;;;13.22;92.85
5455;BME280;2750;49.050;9.250;2023-02-18T04:22:41;99518.00;;;13.07;92.75
5455;BME280;2750;49.050;9.250;2023-02-18T04:27:43;99542.59;;;13.02;93.60
5455;BME280;2750;49.050;9.250;2023-02-18T04:32:44;99525.91;;;13.06;92.73
5455;BME280;2750;49.050;9.250;2023-02-18T04:37:47;99532.88;;;13.25;91.73
5455;BME280;2750;49.050;9.250;2023-02-18T04:42:49;99535.00;;;13.36;91.58
5455;BME280;2750;49.050;9.250;2023-02-18T04:47:51;99526.38;;;13.71;89.21
5455;BME280;2750;49.050;9.250;2023-02-18T04:52:53;99542.16;;;13.68;89.38
5455;BME280;2750;49.050;9.250;2023-02-18T04:57:55;99538.38;;;13.75;88.18
5455;BME280;2750;49.050;9.250;2023-02-18T05:02:57;99548.88;;;14.10;86.82
5455;BME280;2750;49.050;9.250;2023-02-18T05:07:59;99546.22;;;13.93;87.36
5455;BME280;2750;49.050;9.250;2023-02-18T05:13:01;99542.69;;;13.94;87.41
5455;BME280;2750;49.050;9.250;2023-02-18T05:18:03;99536.97;;;14.04;86.34
5455;BME280;2750;49.050;9.250;2023-02-18T05:23:06;99534.88;;;14.11;85.40
5455;BME280;2750;49.050;9.250;2023-02-18T05:28:07;99531.13;;;14.35;84.60
5455;BME280;2750;49.050;9.250;2023-02-18T05:33:09;99538.50;;;14.08;85.10
5455;BME280;2750;49.050;9.250;2023-02-18T05:38:11;99527.94;;;14.28;84.40
5455;BME280;2750;49.050;9.250;2023-02-18T05:43:13;99529.06;;;14.23;84.65
5455;BME280;2750;49.050;9.250;2023-02-18T05:48:15;99520.78;;;14.15;84.92
5455;BME280;2750;49.050;9.250;2023-02-18T05:53:18;99526.31;;;14.09;85.27
5455;BME280;2750;49.050;9.250;2023-02-18T05:58:19;99522.31;;;14.19;84.70
5455;BME280;2750;49.050;9.250;2023-02-18T06:03:21;99524.94;;;14.19;84.10
5455;BME280;2750;49.050;9.250;2023-02-18T06:08:24;99535.91;;;14.08;84.75
5455;BME280;2750;49.050;9.250;2023-02-18T06:13:25;99535.25;;;14.22;83.94
5455;BME280;2750;49.050;9.250;2023-02-18T06:18:27;99526.59;;;14.39;83.37
5455;BME280;2750;49.050;9.250;2023-02-18T06:23:30;99532.84;;;14.17;83.85
5455;BME280;2750;49.050;9.250;2023-02-18T06:28:31;99541.38;;;14.21;84.18
5455;BME280;2750;49.050;9.250;2023-02-18T06:33:33;99524.81;;;14.39;83.40
5455;BME280;2750;49.050;9.250;2023-02-18T06:38:37;99524.97;;;14.36;83.00
5455;BME280;2750;49.050;9.250;2023-02-18T06:43:39;99518.81;;;14.54;82.04
5455;BME280;2750;49.050;9.250;2023-02-18T06:48:41;99520.34;;;14.58;82.73
5455;BME280;2750;49.050;9.250;2023-02-18T06:53:44;99522.41;;;14.17;83.62
5455;BME280;2750;49.050;9.250;2023-02-18T06:58:46;99517.34;;;14.31;83.27
5455;BME280;2750;49.050;9.250;2023-02-18T07:03:47;99515.56;;;14.32;83.35
5455;BME280;2750;49.050;9.250;2023-02-18T07:08:50;99515.59;;;14.49;82.40
5455;BME280;2750;49.050;9.250;2023-02-18T07:13:52;99507.16;;;14.44;82.79
5455;BME280;2750;49.050;9.250;2023-02-18T07:18:53;99498.38;;;14.45;82.38
5455;BME280;2750;49.050;9.250;2023-02-18T07:23:56;99503.44;;;14.65;81.60
5455;BME280;2750;49.050;9.250;2023-02-18T07:28:58;99490.03;;;14.89;80.96
5455;BME280;2750;49.050;9.250;2023-02-18T07:33:59;99482.44;;;14.84;80.93
5455;BME280;2750;49.050;9.250;2023-02-18T07:39:02;99478.66;;;14.90;80.58
5455;BME280;2750;49.050;9.250;2023-02-18T07:44:04;99479.38;;;14.76;80.37
5455;BME280;2750;49.050;9.250;2023-02-18T07:49:06;99493.91;;;14.81;80.24
5455;BME280;2750;49.050;9.250;2023-02-18T07:54:08;99482.91;;;15.08;79.93
5455;BME280;2750;49.050;9.250;2023-02-18T07:59:11;99483.28;;;15.33;78.87
5455;BME280;2750;49.050;9.250;2023-02-18T08:04:12;99470.28;;;15.16;78.52
5455;BME280;2750;49.050;9.250;2023-02-18T08:09:16;99470.50;;;15.11;78.74
5455;BME280;2750;49.050;9.250;2023-02-18T08:14:18;99478.16;;;14.99;78.92
5455;BME280;2750;49.050;9.250;2023-02-18T08:19:19;99460.97;;;14.95;79.21
5455;BME280;2750;49.050;9.250;2023-02-18T08:24:22;99462.34;;;15.02;78.73
5455;BME280;2750;49.050;9.250;2023-02-18T08:29:24;99469.75;;;14.94;79.68
5455;BME280;2750;49.050;9.250;2023-02-18T08:34:25;99471.34;;;15.12;79.10
5455;BME280;2750;49.050;9.250;2023-02-18T08:39:33;99472.63;;;15.05;78.63
5455;BME280;2750;49.050;9.250;2023-02-18T08:44:34;99452.38;;;14.93;78.74
5455;BME280;2750;49.050;9.250;2023-02-18T08:49:36;99474.19;;;14.92;79.01
5455;BME280;2750;49.050;9.250;2023-02-18T08:54:39;99459.56;;;15.05;78.01
5455;BME280;2750;49.050;9.250;2023-02-18T08:59:40;99466.50;;;15.21;77.64
5455;BME280;2750;49.050;9.250;2023-02-18T09:04:42;99459.19;;;14.95;78.38
5455;BME280;2750;49.050;9.250;2023-02-18T09:09:45;99443.56;;;15.58;76.86
5455;BME280;2750;49.050;9.250;2023-02-18T09:14:47;99454.59;;;15.31;78.14
5455;BME280;2750;49.050;9.250;2023-02-18T09:19:48;99431.66;;;15.21;78.20
5455;BME280;2750;49.050;9.250;2023-02-18T09:24:51;99426.06;;;15.27;78.65
5455;BME280;2750;49.050;9.250;2023-02-18T09:29:53;99443.78;;;15.22;78.24
5455;BME280;2750;49.050;9.250;2023-02-18T09:34:55;99437.06;;;15.49;77.99
5455;BME280;2750;49.050;9.250;2023-02-18T09:39:58;99436.75;;;15.55;78.07
5455;BME280;2750;49.050;9.250;2023-02-18T09:45:02;99445.16;;;15.29;78.10
5455;BME280;2750;49.050;9.250;2023-02-18T09:50:10;99440.53;;;15.50;78.40
5455;BME280;2750;49.050;9.250;2023-02-18T09:55:19;99413.00;;;14.96;79.82
5455;BME280;2750;49.050;9.250;2023-02-18T10:00:26;99432.16;;;15.27;78.70
5455;BME280;2750;49.050;9.250;2023-02-18T10:05:30;99445.81;;;15.17;78.32
5455;BME280;2750;49.050;9.250;2023-02-18T10:10:37;99438.53;;;15.06;78.74
5455;BME280;2750;49.050;9.250;2023-02-18T10:15:40;99474.03;;;15.59;77.99
5455;BME280;2750;49.050;9.250;2023-02-18T10:20:42;99466.41;;;15.23;78.31
5455;BME280;2750;49.050;9.250;2023-02-18T10:25:48;99460.31;;;15.22;76.62
5455;BME280;2750;49.050;9.250;2023-02-18T10:30:54;99452.72;;;15.33;77.42
5455;BME280;2750;49.050;9.250;2023-02-18T10:36:04;99459.81;;;15.31;77.38
5455;BME280;2750;49.050;9.250;2023-02-18T10:41:15;99444.03;;;15.02;78.98
5455;BME280;2750;49.050;9.250;2023-02-18T10:46:26;99443.28;;;15.15;78.01
5455;BME280;2750;49.050;9.250;2023-02-18T10:51:33;99456.09;;;15.20;78.72
5455;BME280;2750;49.050;9.250;2023-02-18T10:56:39;99439.81;;;15.15;79.11
5455;BME280;2750;49.050;9.250;2023-02-18T11:01:42;99434.00;;;15.25;79.07
5455;BME280;2750;49.050;9.250;2023-02-18T11:06:46;99439.16;;;15.11;80.11
5455;BME280;2750;49.050;9.250;2023-02-18T11:11:50;99421.88;;;15.09;79.80
5455;BME280;2750;49.050;9.250;2023-02-18T11:16:51;99433.47;;;15.03;80.03
5455;BME280;2750;49.050;9.250;2023-02-18T11:22:06;99424.38;;;15.26;78.93
5455;BME280;2750;49.050;9.250;2023-02-18T11:27:15;99426.88;;;14.80;79.37
5455;BME280;2750;49.050;9.250;2023-02-18T11:32:19;99424.69;;;14.89;80.28
5455;BME280;2750;49.050;9.250;2023-02-18T11:37:21;99430.06;;;14.70;80.77
5455;BME280;2750;49.050;9.250;2023-02-18T11:42:25;99430.91;;;14.70;81.20
5455;BME280;2750;49.050;9.250;2023-02-18T11:47:33;99408.34;;;14.85;81.13
5455;BME280;2750;49.050;9.250;2023-02-18T11:52:36;99412.53;;;14.56;82.38
5455;BME280;2750;49.050;9.250;2023-02-18T11:57:42;99423.16;;;14.69;82.04
5455;BME280;2750;49.050;9.250;2023-02-18T12:02:44;99407.03;;;15.25;80.47
5455;BME280;2750;49.050;9.250;2023-02-18T12:07:47;99409.78;;;15.22;80.40
5455;BME280;2750;49.050;9.250;2023-02-18T12:12:55;99391.50;;;15.06;80.51
5455;BME280;2750;49.050;9.250;2023-02-18T12:18:20;99389.44;;;14.64;82.49
5455;BME280;2750;49.050;9.250;2023-02-18T12:23:31;99388.94;;;14.73;82.14
5455;BME280;2750;49.050;9.250;2023-02-18T12:28:47;99376.81;;;15.04;81.42
5455;BME280;2750;49.050;9.250;2023-02-18T12:34:04;99379.44;;;15.35;80.11
5455;BME280;2750;49.050;9.250;2023-02-18T12:39:19;99376.16;;;14.84;82.45
5455;BME280;2750;49.050;9.250;2023-02-18T12:44:33;99368.56;;;15.27;81.10
5455;BME280;2750;49.050;9.250;2023-02-18T12:49:58;99360.81;;;15.10;81.70
5455;BME280;2750;49.050;9.250;2023-02-18T12:55:20;99362.09;;;15.64;80.43
5455;BME280;2750;49.050;9.250;2023-02-18T13:00:56;99353.94;;;15.39;81.57
5455;BME280;2750;49.050;9.250;2023-02-18T13:06:07;99341.72;;;15.39;81.22
5455;BME280;2750;49.050;9.250;2023-02-18T13:11:23;99331.63;;;15.33;81.94
5455;BME280;2750;49.050;9.250;2023-02-18T13:16:32;99345.50;;;15.49;80.99
5455;BME280;2750;49.050;9.250;2023-02-18T13:21:35;99319.66;;;15.29;81.24
5455;BME280;2750;49.050;9.250;2023-02-18T13:26:40;99322.84;;;15.64;79.83
5455;BME280;2750;49.050;9.250;2023-02-18T13:31:56;99319.88;;;15.70;80.57
5455;BME280;2750;49.050;9.250;2023-02-18T13:37:09;99321.75;;;15.68;80.11
5455;BME280;2750;49.050;9.250;2023-02-18T13:42:38;99294.69;;;15.53;80.95
5455;BME280;2750;49.050;9.250;2023-02-18T13:47:43;99304.69;;;15.31;79.84
5455;BME280;2750;49.050;9.250;2023-02-18T13:52:45;99303.59;;;15.65;79.84
5455;BME280;2750;49.050;9.250;2023-02-18T13:57:48;99308.19;;;15.61;79.39
5455;BME280;2750;49.050;9.250;2023-02-18T14:02:58;99303.53;;;15.81;79.10
5455;BME280;2750;49.050;9.250;2023-02-18T14:08:11;99285.81;;;15.86;78.41
5455;BME280;2750;49.050;9.250;2023-02-18T14:13:24;99289.16;;;15.73;78.27
5455;BME280;2750;49.050;9.250;2023-02-18T14:18:57;99280.19;;;15.92;77.70
5455;BME280;2750;49.050;9.250;2023-02-18T14:24:01;99280.84;;;15.81;77.96
5455;BME280;2750;49.050;9.250;2023-02-18T14:29:17;99293.66;;;15.86;78.87
5455;BME280;2750;49.050;9.250;2023-02-18T14:39:58;99290.69;;;15.32;78.39
5455;BME280;2750;49.050;9.250;2023-02-18T14:45:17;99285.03;;;15.40;78.69
5455;BME280;2750;49.050;9.250;2023-02-18T14:50:21;99272.72;;;15.26;78.25
5455;BME280;2750;49.050;9.250;2023-02-18T14:55:26;99275.00;;;15.62;78.34
5455;BME280;2750;49.050;9.250;2023-02-18T15:00:33;99278.00;;;15.10;78.49
5455;BME280;2750;49.050;9.250;2023-02-18T15:05:37;99276.50;;;15.36;76.86
5455;BME280;2750;49.050;9.250;2023-02-18T15:10:40;99264.47;;;15.18;76.82
5455;BME280;2750;49.050;9.250;2023-02-18T15:15:44;99276.59;;;15.35;76.66
5455;BME280;2750;49.050;9.250;2023-02-18T15:20:49;99286.84;;;15.08;76.73
5455;BME280;2750;49.050;9.250;2023-02-18T15:25:52;99264.75;;;15.43;75.26
5455;BME280;2750;49.050;9.250;2023-02-18T15:30:55;99273.97;;;15.64;74.79
5455;BME280;2750;49.050;9.250;2023-02-18T15:36:03;99265.06;;;14.93;75.91
5455;BME280;2750;49.050;9.250;2023-02-18T15:41:09;99273.59;;;15.11;76.13
5455;BME280;2750;49.050;9.250;2023-02-18T15:46:12;99273.19;;;15.48;75.14
5455;BME280;2750;49.050;9.250;2023-02-18T15:51:18;99279.53;;;15.44;74.78
5455;BME280;2750;49.050;9.250;2023-02-18T15:56:28;99277.41;;;15.21;75.35
5455;BME280;2750;49.050;9.250;2023-02-18T16:01:30;99276.84;;;14.84;76.28
5455;BME280;2750;49.050;9.250;2023-02-18T16:06:37;99277.97;;;15.26;75.48
5455;BME280;2750;49.050;9.250;2023-02-18T16:11:41;99269.72;;;15.18;75.91
5455;BME280;2750;49.050;9.250;2023-02-18T16:17:03;99283.53;;;14.74;77.43
5455;BME280;2750;49.050;9.250;2023-02-18T16:22:23;99286.97;;;14.91;76.91
5455;BME280;2750;49.050;9.250;2023-02-18T16:27:30;99291.31;;;15.21;75.67
5455;BME280;2750;49.050;9.250;2023-02-18T16:32:32;99284.69;;;14.69;76.51
5455;BME280;2750;49.050;9.250;2023-02-18T16:37:35;99290.03;;;14.83;75.89
5455;BME280;2750;49.050;9.250;2023-02-18T16:42:40;99315.75;;;14.42;76.73
5455;BME280;2750;49.050;9.250;2023-02-18T16:47:42;99311.16;;;14.30;76.78
5455;BME280;2750;49.050;9.250;2023-02-18T16:52:46;99322.88;;;14.56;76.38
5455;BME280;2750;49.050;9.250;2023-02-18T16:57:48;99332.81;;;14.65;76.46
5455;BME280;2750;49.050;9.250;2023-02-18T17:02:52;99342.84;;;14.88;75.88
5455;BME280;2750;49.050;9.250;2023-02-18T17:07:56;99338.22;;;14.29;77.31
5455;BME280;2750;49.050;9.250;2023-02-18T17:13:02;99347.47;;;13.84;78.97
5455;BME280;2750;49.050;9.250;2023-02-18T17:18:03;99350.03;;;14.19;77.97
5455;BME280;2750;49.050;9.250;2023-02-18T17:23:06;99357.69;;;13.89;79.69
5455;BME280;2750;49.050;9.250;2023-02-18T17:28:08;99364.66;;;13.54;81.11
5455;BME280;2750;49.050;9.250;2023-02-18T17:33:12;99372.78;;;13.65;80.56
5455;BME280;2750;49.050;9.250;2023-02-18T17:38:18;99381.88;;;13.75;81.63
5455;BME280;2750;49.050;9.250;2023-02-18T17:43:20;99394.66;;;12.89;87.06
5455;BME280;2750;49.050;9.250;2023-02-18T17:48:25;99406.19;;;12.65;89.08
5455;BME280;2750;49.050;9.250;2023-02-18T17:53:30;99416.25;;;12.73;88.55
5455;BME280;2750;49.050;9.250;2023-02-18T17:58:32;99410.44;;;12.68;88.32
5455;BME280;2750;49.050;9.250;2023-02-18T18:03:33;99422.25;;;12.16;91.69
5455;BME280;2750;49.050;9.250;2023-02-18T18:08:36;99411.44;;;11.84;91.80
5455;BME280;2750;49.050;9.250;2023-02-18T18:13:38;99410.72;;;11.81;91.63
5455;BME280;2750;49.050;9.250;2023-02-18T18:18:39;99422.97;;;12.19;90.35
5455;BME280;2750;49.050;9.250;2023-02-18T18:23:42;99415.09;;;12.01;90.80
5455;BME280;2750;49.050;9.250;2023-02-18T18:28:44;99420.16;;;12.44;89.35
5455;BME280;2750;49.050;9.250;2023-02-18T18:33:46;99422.19;;;12.17;89.85
5455;BME280;2750;49.050;9.250;2023-02-18T18:38:51;99429.22;;;11.73;94.28
5455;BME280;2750;49.050;9.250;2023-02-18T18:43:52;99420.53;;;11.31;98.32
5455;BME280;2750;49.050;9.250;2023-02-18T18:48:54;99440.56;;;11.06;100.00
5455;BME280;2750;49.050;9.250;2023-02-18T18:53:57;99441.19;;;10.89;100.00
5455;BME280;2750;49.050;9.250;2023-02-18T18:58:58;99429.50;;;11.00;100.00
5455;BME280;2750;49.050;9.250;2023-02-18T19:04:00;99426.97;;;11.42;100.00
5455;BME280;2750;49.050;9.250;2023-02-18T19:09:03;99426.31;;;11.59;99.17
5455;BME280;2750;49.050;9.250;2023-02-18T19:14:04;99426.44;;;11.13;99.95
5455;BME280;2750;49.050;9.250;2023-02-18T19:19:07;99425.06;;;11.26;100.00
5455;BME280;2750;49.050;9.250;2023-02-18T19:24:10;99427.78;;;11.23;100.00
5455;BME280;2750;49.050;9.250;2023-02-18T19:29:12;99434.00;;;11.40;100.00
5455;BME280;2750;49.050;9.250;2023-02-18T19:34:13;99428.72;;;11.20;100.00
5455;BME280;2750;49.050;9.250;2023-02-18T19:39:16;99422.81;;;11.17;100.00
5455;BME280;2750;49.050;9.250;2023-02-18T19:44:18;99423.97;;;11.10;100.00
5455;BME280;2750;49.050;9.250;2023-02-18T19:49:24;99422.59;;;11.23;100.00
5455;BME280;2750;49.050;9.250;2023-02-18T19:54:28;99413.63;;;11.51;100.00
5455;BME280;2750;49.050;9.250;2023-02-18T19:59:29;99421.06;;;11.61;99.44
5455;BME280;2750;49.050;9.250;2023-02-18T20:04:31;99428.19;;;11.77;98.13
5455;BME280;2750;49.050;9.250;2023-02-18T20:09:34;99427.72;;;11.68;99.21
5455;BME280;2750;49.050;9.250;2023-02-18T20:14:36;99444.19;;;11.23;100.00
5455;BME280;2750;49.050;9.250;2023-02-18T20:19:37;99438.78;;;11.29;100.00
5455;BME280;2750;49.050;9.250;2023-02-18T20:24:40;99428.19;;;11.12;100.00
5455;BME280;2750;49.050;9.250;2023-02-18T20:29:42;99428.59;;;11.01;100.00
5455;BME280;2750;49.050;9.250;2023-02-18T20:34:43;99428.38;;;11.08;100.00
5455;BME280;2750;49.050;9.250;2023-02-18T20:39:46;99435.22;;;11.32;100.00
5455;BME280;2750;49.050;9.250;2023-02-18T20:44:48;99429.88;;;11.13;100.00
5455;BME280;2750;49.050;9.250;2023-02-18T20:49:50;99431.06;;;11.04;100.00
5455;BME280;2750;49.050;9.250;2023-02-18T20:54:54;99434.66;;;11.24;100.00
5455;BME280;2750;49.050;9.250;2023-02-18T20:59:55;99430.97;;;11.08;100.00
5455;BME280;2750;49.050;9.250;2023-02-18T21:04:57;99440.56;;;11.06;100.00
5455;BME280;2750;49.050;9.250;2023-02-18T21:10:00;99420.78;;;10.80;100.00
5455;BME280;2750;49.050;9.250;2023-02-18T21:15:03;99423.72;;;10.92;100.00
5455;BME280;2750;49.050;9.250;2023-02-18T21:20:06;99413.94;;;10.77;100.00
5455;BME280;2750;49.050;9.250;2023-02-18T21:25:09;99425.69;;;10.87;100.00
5455;BME280;2750;49.050;9.250;2023-02-18T21:30:12;99428.69;;;10.77;100.00
5455;BME280;2750;49.050;9.250;2023-02-18T21:35:13;99420.84;;;11.00;100.00
5455;BME280;2750;49.050;9.250;2023-02-18T21:40:18;99422.13;;;10.90;100.00
5455;BME280;2750;49.050;9.250;2023-02-18T21:45:20;99419.06;;;11.02;100.00
5455;BME280;2750;49.050;9.250;2023-02-18T21:50:21;99418.84;;;10.85;100.00
5455;BME280;2750;49.050;9.250;2023-02-18T21:55:24;99420.63;;;11.06;100.00
5455;BME280;2750;49.050;9.250;2023-02-18T22:00:26;99422.63;;;10.76;100.00
5455;BME280;2750;49.050;9.250;2023-02-18T22:05:27;99413.56;;;10.65;100.00
5455;BME280;2750;49.050;9.250;2023-02-18T22:10:31;99411.31;;;10.54;100.00
5455;BME280;2750;49.050;9.250;2023-02-18T22:15:33;99418.09;;;10.58;100.00
5455;BME280;2750;49.050;9.250;2023-02-18T22:20:37;99410.78;;;10.69;100.00
5455;BME280;2750;49.050;9.250;2023-02-18T22:25:40;99409.41;;;11.06;100.00
5455;BME280;2750;49.050;9.250;2023-02-18T22:30:41;99399.88;;;10.83;100.00
5455;BME280;2750;49.050;9.250;2023-02-18T22:35:43;99405.91;;;11.07;100.00
5455;BME280;2750;49.050;9.250;2023-02-18T22:40:46;99394.75;;;10.81;100.00
5455;BME280;2750;49.050;9.250;2023-02-18T22:45:48;99385.84;;;10.88;100.00
5455;BME280;2750;49.050;9.250;2023-02-18T22:50:50;99390.41;;;10.59;100.00
5455;BME280;2750;49.050;9.250;2023-02-18T22:55:58;99375.53;;;10.64;100.00
5455;BME280;2750;49.050;9.250;2023-02-18T23:00:59;99378.41;;;10.56;100.00
5455;BME280;2750;49.050;9.250;2023-02-18T23:06:03;99367.91;;;10.36;100.00
5455;BME280;2750;49.050;9.250;2023-02-18T23:11:09;99345.47;;;10.35;100.00
5455;BME280;2750;49.050;9.250;2023-02-18T23:16:13;99349.97;;;10.30;100.00
5455;BME280;2750;49.050;9.250;2023-02-18T23:21:15;99349.41;;;10.45;100.00
5455;BME280;2750;49.050;9.250;2023-02-18T23:26:23;99347.66;;;10.45;100.00
5455;BME280;2750;49.050;9.250;2023-02-18T23:31:26;99352.63;;;10.51;100.00
5455;BME280;2750;49.050;9.250;2023-02-18T23:36:29;99348.38;;;10.72;100.00
5455;BME280;2750;49.050;9.250;2023-02-18T23:41:33;99352.13;;;10.87;100.00
5455;BME280;2750;49.050;9.250;2023-02-18T23:46:35;99345.81;;;10.94;100.00
5455;BME280;2750;49.050;9.250;2023-02-18T23:51:37;99341.75;;;10.65;100.00
5455;BME280;2750;49.050;9.250;2023-02-18T23:56:40;99343.06;;;10.75;100.00
